sensor_id;sensor_type;location;lat;lon;timestamp;temperature;humidity
18268;DHT22;9260;49.998;19.880;2022-10-19T00:01:51;11.70;99.90
18268;DHT22;9260;49.998;19.880;2022-10-19T00:11:55;11.60;99.90
18268;DHT22;9260;49.998;19.880;2022-10-19T00:21:59;11.60;99.90
18268;DHT22;9260;49.998;19.880;2022-10-19T00:32:03;11.50;99.90
18268;DHT22;9260;49.998;19.880;2022-10-19T00:42:09;11.40;99.90
18268;DHT22;9260;49.998;19.880;2022-10-19T00:52:19;11.40;99.90
18268;DHT22;9260;49.998;19.880;2022-10-19T01:02:23;11.40;99.90
18268;DHT22;9260;49.998;19.880;2022-10-19T01:34:08;11.30;99.90
18268;DHT22;9260;49.998;19.880;2022-10-19T01:44:18;11.30;99.90
18268;DHT22;9260;49.998;19.880;2022-10-19T01:54:28;11.20;99.90
18268;DHT22;9260;49.998;19.880;2022-10-19T02:04:33;11.10;99.90
18268;DHT22;9260;49.998;19.880;2022-10-19T02:14:41;11.10;99.90
18268;DHT22;9260;49.998;19.880;2022-10-19T02:24:46;11.10;99.90
18268;DHT22;9260;49.998;19.880;2022-10-19T02:34:51;11.10;99.90
18268;DHT22;9260;49.998;19.880;2022-10-19T02:44:58;11.20;99.90
18268;DHT22;9260;49.998;19.880;2022-10-19T02:55:07;11.20;99.90
18268;DHT22;9260;49.998;19.880;2022-10-19T03:05:10;11.20;99.90
18268;DHT22;9260;49.998;19.880;2022-10-19T03:15:16;11.20;99.90
18268;DHT22;9260;49.998;19.880;2022-10-19T03:25:20;11.20;99.90
18268;DHT22;9260;49.998;19.880;2022-10-19T03:35:24;11.10;99.90
18268;DHT22;9260;49.998;19.880;2022-10-19T03:45:28;11.00;99.90
18268;DHT22;9260;49.998;19.880;2022-10-19T03:55:32;10.80;99.90
18268;DHT22;9260;49.998;19.880;2022-10-19T04:05:35;10.60;99.90
18268;DHT22;9260;49.998;19.880;2022-10-19T04:15:40;10.40;99.90
18268;DHT22;9260;49.998;19.880;2022-10-19T04:25:43;10.30;99.90
18268;DHT22;9260;49.998;19.880;2022-10-19T04:35:48;10.30;99.90
18268;DHT22;9260;49.998;19.880;2022-10-19T04:45:51;10.30;99.90
18268;DHT22;9260;49.998;19.880;2022-10-19T04:55:56;10.40;99.90
18268;DHT22;9260;49.998;19.880;2022-10-19T05:05:59;10.50;99.90
18268;DHT22;9260;49.998;19.880;2022-10-19T05:16:06;10.50;99.90
18268;DHT22;9260;49.998;19.880;2022-10-19T05:26:11;10.40;99.90
18268;DHT22;9260;49.998;19.880;2022-10-19T05:36:20;10.30;99.90
18268;DHT22;9260;49.998;19.880;2022-10-19T05:46:28;10.30;99.90
18268;DHT22;9260;49.998;19.880;2022-10-19T05:56:33;9.80;99.90
18268;DHT22;9260;49.998;19.880;2022-10-19T06:06:36;9.70;99.90
18268;DHT22;9260;49.998;19.880;2022-10-19T06:16:41;9.80;99.90
18268;DHT22;9260;49.998;19.880;2022-10-19T06:26:46;10.10;99.90
18268;DHT22;9260;49.998;19.880;2022-10-19T06:36:51;9.90;99.90
18268;DHT22;9260;49.998;19.880;2022-10-19T06:46:54;11.00;99.90
18268;DHT22;9260;49.998;19.880;2022-10-19T06:56:59;12.70;99.90
18268;DHT22;9260;49.998;19.880;2022-10-19T07:07:03;14.70;99.90
18268;DHT22;9260;49.998;19.880;2022-10-19T07:17:10;17.00;99.90
18268;DHT22;9260;49.998;19.880;2022-10-19T07:27:13;18.10;99.90
18268;DHT22;9260;49.998;19.880;2022-10-19T07:37:18;18.10;99.90
18268;DHT22;9260;49.998;19.880;2022-10-19T07:47:21;14.90;99.90
18268;DHT22;9260;49.998;19.880;2022-10-19T07:57:26;13.10;99.90
18268;DHT22;9260;49.998;19.880;2022-10-19T08:07:31;12.80;99.90
18268;DHT22;9260;49.998;19.880;2022-10-19T08:17:36;13.30;99.90
18268;DHT22;9260;49.998;19.880;2022-10-19T08:27:40;13.20;99.90
18268;DHT22;9260;49.998;19.880;2022-10-19T08:37:45;15.00;99.90
18268;DHT22;9260;49.998;19.880;2022-10-19T08:47:58;13.40;99.90
18268;DHT22;9260;49.998;19.880;2022-10-19T08:58:17;13.20;99.90
18268;DHT22;9260;49.998;19.880;2022-10-19T09:08:26;12.80;99.90
18268;DHT22;9260;49.998;19.880;2022-10-19T09:18:33;12.20;99.90
18268;DHT22;9260;49.998;19.880;2022-10-19T09:28:44;11.80;99.90
18268;DHT22;9260;49.998;19.880;2022-10-19T09:38:51;11.60;99.90
18268;DHT22;9260;49.998;19.880;2022-10-19T09:48:58;11.40;99.90
18268;DHT22;9260;49.998;19.880;2022-10-19T09:59:03;11.40;99.90
18268;DHT22;9260;49.998;19.880;2022-10-19T10:09:25;12.70;99.90
18268;DHT22;9260;49.998;19.880;2022-10-19T10:19:32;16.50;99.90
18268;DHT22;9260;49.998;19.880;2022-10-19T10:29:38;15.90;99.90
18268;DHT22;9260;49.998;19.880;2022-10-19T10:39:42;13.40;99.90
18268;DHT22;9260;49.998;19.880;2022-10-19T10:49:52;12.30;99.90
18268;DHT22;9260;49.998;19.880;2022-10-19T11:00:03;12.90;99.90
18268;DHT22;9260;49.998;19.880;2022-10-19T11:10:19;13.50;99.90
18268;DHT22;9260;49.998;19.880;2022-10-19T11:20:29;21.10;99.90
18268;DHT22;9260;49.998;19.880;2022-10-19T11:30:36;24.40;99.90
18268;DHT22;9260;49.998;19.880;2022-10-19T11:40:59;17.20;99.90
18268;DHT22;9260;49.998;19.880;2022-10-19T11:51:23;14.50;99.90
18268;DHT22;9260;49.998;19.880;2022-10-19T12:01:44;13.60;99.90
18268;DHT22;9260;49.998;19.880;2022-10-19T12:12:05;13.70;99.90
18268;DHT22;9260;49.998;19.880;2022-10-19T12:22:20;14.10;99.90
18268;DHT22;9260;49.998;19.880;2022-10-19T12:32:26;14.60;99.90
18268;DHT22;9260;49.998;19.880;2022-10-19T12:42:36;13.40;99.90
18268;DHT22;9260;49.998;19.880;2022-10-19T12:52:49;12.90;99.90
18268;DHT22;9260;49.998;19.880;2022-10-19T13:02:59;12.40;99.90
18268;DHT22;9260;49.998;19.880;2022-10-19T13:13:04;11.80;99.90
18268;DHT22;9260;49.998;19.880;2022-10-19T13:23:37;11.50;99.90
18268;DHT22;9260;49.998;19.880;2022-10-19T13:33:49;11.50;99.90
18268;DHT22;9260;49.998;19.880;2022-10-19T13:54:35;11.10;99.90
18268;DHT22;9260;49.998;19.880;2022-10-19T14:05:07;11.00;99.90
18268;DHT22;9260;49.998;19.880;2022-10-19T14:15:21;11.30;99.90
18268;DHT22;9260;49.998;19.880;2022-10-19T14:25:29;11.10;99.90
18268;DHT22;9260;49.998;19.880;2022-10-19T14:35:35;10.80;99.90
18268;DHT22;9260;49.998;19.880;2022-10-19T14:45:41;10.60;99.90
18268;DHT22;9260;49.998;19.880;2022-10-19T14:55:44;10.60;99.90
18268;DHT22;9260;49.998;19.880;2022-10-19T15:05:53;10.40;99.90
18268;DHT22;9260;49.998;19.880;2022-10-19T15:15:58;10.30;99.90
18268;DHT22;9260;49.998;19.880;2022-10-19T15:26:13;10.10;99.90
18268;DHT22;9260;49.998;19.880;2022-10-19T15:36:20;10.10;99.90
18268;DHT22;9260;49.998;19.880;2022-10-19T15:46:31;9.90;99.90
18268;DHT22;9260;49.998;19.880;2022-10-19T15:56:37;9.70;99.90
18268;DHT22;9260;49.998;19.880;2022-10-19T16:06:44;9.60;99.90
18268;DHT22;9260;49.998;19.880;2022-10-19T16:16:48;9.50;99.90
18268;DHT22;9260;49.998;19.880;2022-10-19T16:26:54;9.40;99.90
18268;DHT22;9260;49.998;19.880;2022-10-19T16:36:57;9.20;99.90
18268;DHT22;9260;49.998;19.880;2022-10-19T16:47:07;9.20;99.90
18268;DHT22;9260;49.998;19.880;2022-10-19T16:57:11;9.20;99.90
18268;DHT22;9260;49.998;19.880;2022-10-19T17:07:16;9.20;99.90
18268;DHT22;9260;49.998;19.880;2022-10-19T17:17:20;9.20;99.90
18268;DHT22;9260;49.998;19.880;2022-10-19T17:27:24;9.10;99.90
18268;DHT22;9260;49.998;19.880;2022-10-19T17:37:34;8.90;99.90
18268;DHT22;9260;49.998;19.880;2022-10-19T17:47:39;8.90;99.90
18268;DHT22;9260;49.998;19.880;2022-10-19T17:57:42;8.90;99.90
18268;DHT22;9260;49.998;19.880;2022-10-19T18:07:47;8.80;99.90
18268;DHT22;9260;49.998;19.880;2022-10-19T18:17:52;8.70;99.90
18268;DHT22;9260;49.998;19.880;2022-10-19T18:27:56;8.50;99.90
18268;DHT22;9260;49.998;19.880;2022-10-19T18:38:00;8.30;99.90
18268;DHT22;9260;49.998;19.880;2022-10-19T18:48:05;8.20;99.90
18268;DHT22;9260;49.998;19.880;2022-10-19T18:58:08;8.20;99.90
18268;DHT22;9260;49.998;19.880;2022-10-19T19:08:15;8.10;99.90
18268;DHT22;9260;49.998;19.880;2022-10-19T19:18:18;7.30;99.90
18268;DHT22;9260;49.998;19.880;2022-10-19T19:28:23;6.60;99.90
18268;DHT22;9260;49.998;19.880;2022-10-19T19:38:26;5.90;99.90
18268;DHT22;9260;49.998;19.880;2022-10-19T19:48:31;5.30;99.90
18268;DHT22;9260;49.998;19.880;2022-10-19T19:58:35;4.70;99.90
18268;DHT22;9260;49.998;19.880;2022-10-19T20:08:40;4.40;99.90
18268;DHT22;9260;49.998;19.880;2022-10-19T20:18:47;4.50;99.90
18268;DHT22;9260;49.998;19.880;2022-10-19T20:28:53;4.70;99.90
18268;DHT22;9260;49.998;19.880;2022-10-19T20:38:57;4.60;99.90
18268;DHT22;9260;49.998;19.880;2022-10-19T20:49:02;4.20;99.90
18268;DHT22;9260;49.998;19.880;2022-10-19T20:59:09;3.80;99.90
18268;DHT22;9260;49.998;19.880;2022-10-19T21:09:16;3.50;99.90
18268;DHT22;9260;49.998;19.880;2022-10-19T21:19:23;3.30;99.90
18268;DHT22;9260;49.998;19.880;2022-10-19T21:29:28;3.40;99.90
18268;DHT22;9260;49.998;19.880;2022-10-19T21:39:32;3.30;99.90
18268;DHT22;9260;49.998;19.880;2022-10-19T21:49:36;3.00;99.90
18268;DHT22;9260;49.998;19.880;2022-10-19T21:59:39;3.70;99.90
18268;DHT22;9260;49.998;19.880;2022-10-19T22:09:44;4.50;99.90
18268;DHT22;9260;49.998;19.880;2022-10-19T22:19:48;4.50;99.90
18268;DHT22;9260;49.998;19.880;2022-10-19T22:29:53;4.50;99.90
18268;DHT22;9260;49.998;19.880;2022-10-19T22:39:56;4.40;99.90
18268;DHT22;9260;49.998;19.880;2022-10-19T22:50:01;4.90;99.90
18268;DHT22;9260;49.998;19.880;2022-10-19T23:00:05;4.80;99.90
18268;DHT22;9260;49.998;19.880;2022-10-19T23:10:11;4.40;99.90
18268;DHT22;9260;49.998;19.880;2022-10-19T23:20:14;4.00;99.90
18268;DHT22;9260;49.998;19.880;2022-10-19T23:30:19;3.70;99.90
18268;DHT22;9260;49.998;19.880;2022-10-19T23:40:22;4.00;99.90
18268;DHT22;9260;49.998;19.880;2022-10-19T23:50:27;4.30;99.90
